sensor_id;sensor_type;location;lat;lon;timestamp;temperature;humidity
11650;DHT22;5881;48.522;7.682;2023-03-14T00:01:29;10.80;99.90
11650;DHT22;5881;48.522;7.682;2023-03-14T00:03:54;10.80;99.90
11650;DHT22;5881;48.522;7.682;2023-03-14T00:06:20;10.80;99.90
11650;DHT22;5881;48.522;7.682;2023-03-14T00:08:46;10.90;99.90
11650;DHT22;5881;48.522;7.682;2023-03-14T00:11:15;10.90;99.90
11650;DHT22;5881;48.522;7.682;2023-03-14T00:13:41;10.90;99.90
11650;DHT22;5881;48.522;7.682;2023-03-14T00:16:10;10.90;99.90
11650;DHT22;5881;48.522;7.682;2023-03-14T00:18:36;10.90;99.90
11650;DHT22;5881;48.522;7.682;2023-03-14T00:21:04;10.90;99.90
11650;DHT22;5881;48.522;7.682;2023-03-14T00:23:32;10.90;99.90
11650;DHT22;5881;48.522;7.682;2023-03-14T00:26:02;10.90;99.90
11650;DHT22;5881;48.522;7.682;2023-03-14T00:28:28;10.90;99.90
11650;DHT22;5881;48.522;7.682;2023-03-14T00:30:54;10.90;99.90
11650;DHT22;5881;48.522;7.682;2023-03-14T00:33:20;10.90;99.90
11650;DHT22;5881;48.522;7.682;2023-03-14T00:35:56;10.90;99.90
11650;DHT22;5881;48.522;7.682;2023-03-14T00:38:22;10.90;99.90
11650;DHT22;5881;48.522;7.682;2023-03-14T00:40:48;11.00;99.90
11650;DHT22;5881;48.522;7.682;2023-03-14T00:43:13;11.00;99.90
11650;DHT22;5881;48.522;7.682;2023-03-14T00:45:39;11.00;99.90
11650;DHT22;5881;48.522;7.682;2023-03-14T00:48:04;11.00;99.90
11650;DHT22;5881;48.522;7.682;2023-03-14T00:50:30;10.90;99.90
11650;DHT22;5881;48.522;7.682;2023-03-14T00:52:56;10.90;99.90
11650;DHT22;5881;48.522;7.682;2023-03-14T00:55:21;10.90;99.90
11650;DHT22;5881;48.522;7.682;2023-03-14T00:57:47;11.00;99.90
11650;DHT22;5881;48.522;7.682;2023-03-14T01:00:13;10.90;99.90
11650;DHT22;5881;48.522;7.682;2023-03-14T01:02:39;11.00;99.90
11650;DHT22;5881;48.522;7.682;2023-03-14T01:05:05;10.90;99.90
11650;DHT22;5881;48.522;7.682;2023-03-14T01:07:30;10.90;99.90
11650;DHT22;5881;48.522;7.682;2023-03-14T01:09:56;10.90;99.90
11650;DHT22;5881;48.522;7.682;2023-03-14T01:12:21;10.90;99.90
11650;DHT22;5881;48.522;7.682;2023-03-14T01:14:47;10.90;99.90
11650;DHT22;5881;48.522;7.682;2023-03-14T01:17:12;10.90;99.90
11650;DHT22;5881;48.522;7.682;2023-03-14T01:19:38;10.90;99.90
11650;DHT22;5881;48.522;7.682;2023-03-14T01:22:04;10.90;99.90
11650;DHT22;5881;48.522;7.682;2023-03-14T01:24:29;10.90;99.90
11650;DHT22;5881;48.522;7.682;2023-03-14T01:26:55;10.80;99.90
11650;DHT22;5881;48.522;7.682;2023-03-14T01:29:20;10.80;99.90
11650;DHT22;5881;48.522;7.682;2023-03-14T01:31:46;10.80;99.90
11650;DHT22;5881;48.522;7.682;2023-03-14T01:34:12;10.70;99.90
11650;DHT22;5881;48.522;7.682;2023-03-14T01:36:37;10.80;99.90
11650;DHT22;5881;48.522;7.682;2023-03-14T01:39:03;10.70;99.90
11650;DHT22;5881;48.522;7.682;2023-03-14T01:41:31;10.70;99.90
11650;DHT22;5881;48.522;7.682;2023-03-14T01:43:58;10.60;99.90
11650;DHT22;5881;48.522;7.682;2023-03-14T01:46:50;10.60;99.90
11650;DHT22;5881;48.522;7.682;2023-03-14T01:54:39;10.60;99.90
11650;DHT22;5881;48.522;7.682;2023-03-14T01:59:37;10.50;99.90
11650;DHT22;5881;48.522;7.682;2023-03-14T02:02:06;10.50;99.90
11650;DHT22;5881;48.522;7.682;2023-03-14T02:04:36;10.50;99.90
11650;DHT22;5881;48.522;7.682;2023-03-14T02:07:08;10.50;99.90
11650;DHT22;5881;48.522;7.682;2023-03-14T02:09:36;10.50;99.90
11650;DHT22;5881;48.522;7.682;2023-03-14T02:12:02;10.50;99.90
11650;DHT22;5881;48.522;7.682;2023-03-14T02:14:34;10.50;99.90
11650;DHT22;5881;48.522;7.682;2023-03-14T02:17:02;10.50;99.90
11650;DHT22;5881;48.522;7.682;2023-03-14T02:19:57;10.50;99.90
11650;DHT22;5881;48.522;7.682;2023-03-14T02:22:26;10.40;99.90
11650;DHT22;5881;48.522;7.682;2023-03-14T02:27:41;10.40;99.90
11650;DHT22;5881;48.522;7.682;2023-03-14T02:30:11;10.40;99.90
11650;DHT22;5881;48.522;7.682;2023-03-14T02:32:39;10.40;99.90
11650;DHT22;5881;48.522;7.682;2023-03-14T02:35:09;10.40;99.90
11650;DHT22;5881;48.522;7.682;2023-03-14T02:37:42;10.50;99.90
11650;DHT22;5881;48.522;7.682;2023-03-14T02:40:10;10.50;99.90
11650;DHT22;5881;48.522;7.682;2023-03-14T02:42:35;10.40;99.90
11650;DHT22;5881;48.522;7.682;2023-03-14T02:47:52;10.50;99.90
11650;DHT22;5881;48.522;7.682;2023-03-14T02:50:21;10.50;99.90
11650;DHT22;5881;48.522;7.682;2023-03-14T02:52:48;10.40;99.90
11650;DHT22;5881;48.522;7.682;2023-03-14T02:55:13;10.40;99.90
11650;DHT22;5881;48.522;7.682;2023-03-14T02:57:39;10.40;99.90
11650;DHT22;5881;48.522;7.682;2023-03-14T03:00:05;10.40;99.90
11650;DHT22;5881;48.522;7.682;2023-03-14T03:02:32;10.40;99.90
11650;DHT22;5881;48.522;7.682;2023-03-14T03:04:57;10.40;99.90
11650;DHT22;5881;48.522;7.682;2023-03-14T03:07:23;10.40;99.90
11650;DHT22;5881;48.522;7.682;2023-03-14T03:09:49;10.50;99.90
11650;DHT22;5881;48.522;7.682;2023-03-14T03:12:15;10.40;99.90
11650;DHT22;5881;48.522;7.682;2023-03-14T03:14:40;10.50;99.90
11650;DHT22;5881;48.522;7.682;2023-03-14T03:17:06;10.30;99.90
11650;DHT22;5881;48.522;7.682;2023-03-14T03:19:33;10.40;99.90
11650;DHT22;5881;48.522;7.682;2023-03-14T03:21:59;10.40;99.90
11650;DHT22;5881;48.522;7.682;2023-03-14T03:24:25;10.40;99.90
11650;DHT22;5881;48.522;7.682;2023-03-14T03:26:51;10.40;99.90
11650;DHT22;5881;48.522;7.682;2023-03-14T03:29:17;10.40;99.90
11650;DHT22;5881;48.522;7.682;2023-03-14T03:31:43;10.40;99.90
11650;DHT22;5881;48.522;7.682;2023-03-14T03:34:11;10.40;99.90
11650;DHT22;5881;48.522;7.682;2023-03-14T03:36:36;10.40;99.90
11650;DHT22;5881;48.522;7.682;2023-03-14T03:39:02;10.40;99.90
11650;DHT22;5881;48.522;7.682;2023-03-14T03:41:29;10.40;99.90
11650;DHT22;5881;48.522;7.682;2023-03-14T03:43:55;10.40;99.90
11650;DHT22;5881;48.522;7.682;2023-03-14T03:46:21;10.40;99.90
11650;DHT22;5881;48.522;7.682;2023-03-14T03:48:46;10.40;99.90
11650;DHT22;5881;48.522;7.682;2023-03-14T03:51:15;10.30;99.90
11650;DHT22;5881;48.522;7.682;2023-03-14T03:53:42;10.30;99.90
11650;DHT22;5881;48.522;7.682;2023-03-14T03:56:08;10.30;99.90
11650;DHT22;5881;48.522;7.682;2023-03-14T03:58:34;10.30;99.90
11650;DHT22;5881;48.522;7.682;2023-03-14T04:01:00;10.20;99.90
11650;DHT22;5881;48.522;7.682;2023-03-14T04:03:26;10.30;99.90
11650;DHT22;5881;48.522;7.682;2023-03-14T04:06:09;10.30;99.90
11650;DHT22;5881;48.522;7.682;2023-03-14T04:08:34;10.30;99.90
11650;DHT22;5881;48.522;7.682;2023-03-14T04:11:01;10.30;99.90
11650;DHT22;5881;48.522;7.682;2023-03-14T04:13:28;10.30;99.90
11650;DHT22;5881;48.522;7.682;2023-03-14T04:15:54;10.40;99.90
11650;DHT22;5881;48.522;7.682;2023-03-14T04:18:21;10.30;99.90
11650;DHT22;5881;48.522;7.682;2023-03-14T04:20:57;10.30;99.90
11650;DHT22;5881;48.522;7.682;2023-03-14T04:23:23;10.30;99.90
11650;DHT22;5881;48.522;7.682;2023-03-14T04:25:50;10.40;99.90
11650;DHT22;5881;48.522;7.682;2023-03-14T04:28:16;10.40;99.90
11650;DHT22;5881;48.522;7.682;2023-03-14T04:30:42;10.30;99.90
11650;DHT22;5881;48.522;7.682;2023-03-14T04:33:08;10.40;99.90
11650;DHT22;5881;48.522;7.682;2023-03-14T04:35:34;10.40;99.90
11650;DHT22;5881;48.522;7.682;2023-03-14T04:38:00;10.30;99.90
11650;DHT22;5881;48.522;7.682;2023-03-14T04:40:26;10.40;99.90
11650;DHT22;5881;48.522;7.682;2023-03-14T04:42:51;10.40;99.90
11650;DHT22;5881;48.522;7.682;2023-03-14T04:45:17;10.30;99.90
11650;DHT22;5881;48.522;7.682;2023-03-14T04:47:42;10.40;99.90
11650;DHT22;5881;48.522;7.682;2023-03-14T04:50:09;10.30;99.90
11650;DHT22;5881;48.522;7.682;2023-03-14T04:52:35;10.30;99.90
11650;DHT22;5881;48.522;7.682;2023-03-14T04:55:01;10.20;99.90
11650;DHT22;5881;48.522;7.682;2023-03-14T04:57:26;10.20;99.90
11650;DHT22;5881;48.522;7.682;2023-03-14T04:59:52;10.20;99.90
11650;DHT22;5881;48.522;7.682;2023-03-14T05:02:17;10.30;99.90
11650;DHT22;5881;48.522;7.682;2023-03-14T05:04:43;10.20;99.90
11650;DHT22;5881;48.522;7.682;2023-03-14T05:07:09;10.10;99.90
11650;DHT22;5881;48.522;7.682;2023-03-14T05:09:34;10.20;99.90
11650;DHT22;5881;48.522;7.682;2023-03-14T05:12:00;10.10;99.90
11650;DHT22;5881;48.522;7.682;2023-03-14T05:14:25;10.20;99.90
11650;DHT22;5881;48.522;7.682;2023-03-14T05:16:51;10.20;99.90
11650;DHT22;5881;48.522;7.682;2023-03-14T05:19:17;10.30;99.90
11650;DHT22;5881;48.522;7.682;2023-03-14T05:21:42;10.20;99.90
11650;DHT22;5881;48.522;7.682;2023-03-14T05:24:08;10.20;99.90
11650;DHT22;5881;48.522;7.682;2023-03-14T05:26:33;10.20;99.90
11650;DHT22;5881;48.522;7.682;2023-03-14T05:28:59;10.20;99.90
11650;DHT22;5881;48.522;7.682;2023-03-14T05:31:25;10.20;99.90
11650;DHT22;5881;48.522;7.682;2023-03-14T05:33:50;10.20;99.90
11650;DHT22;5881;48.522;7.682;2023-03-14T05:36:16;10.20;99.90
11650;DHT22;5881;48.522;7.682;2023-03-14T05:38:41;10.20;99.90
11650;DHT22;5881;48.522;7.682;2023-03-14T05:41:07;10.20;99.90
11650;DHT22;5881;48.522;7.682;2023-03-14T05:43:33;10.20;99.90
11650;DHT22;5881;48.522;7.682;2023-03-14T05:45:58;10.20;99.90
11650;DHT22;5881;48.522;7.682;2023-03-14T05:48:24;10.20;99.90
11650;DHT22;5881;48.522;7.682;2023-03-14T05:50:57;10.20;99.90
11650;DHT22;5881;48.522;7.682;2023-03-14T05:53:24;10.20;99.90
11650;DHT22;5881;48.522;7.682;2023-03-14T05:55:54;10.20;99.90
11650;DHT22;5881;48.522;7.682;2023-03-14T05:58:20;10.30;99.90
11650;DHT22;5881;48.522;7.682;2023-03-14T06:00:45;10.30;99.90
11650;DHT22;5881;48.522;7.682;2023-03-14T06:03:11;10.30;99.90
11650;DHT22;5881;48.522;7.682;2023-03-14T06:05:36;10.30;99.90
11650;DHT22;5881;48.522;7.682;2023-03-14T06:08:02;10.30;99.90
11650;DHT22;5881;48.522;7.682;2023-03-14T06:10:28;10.30;99.90
11650;DHT22;5881;48.522;7.682;2023-03-14T06:12:53;10.40;99.90
11650;DHT22;5881;48.522;7.682;2023-03-14T06:15:19;10.40;99.90
11650;DHT22;5881;48.522;7.682;2023-03-14T06:17:45;10.40;99.90
11650;DHT22;5881;48.522;7.682;2023-03-14T06:20:11;10.50;99.90
11650;DHT22;5881;48.522;7.682;2023-03-14T06:22:37;10.50;99.90
11650;DHT22;5881;48.522;7.682;2023-03-14T06:25:04;10.60;99.90
11650;DHT22;5881;48.522;7.682;2023-03-14T06:27:29;10.60;99.90
11650;DHT22;5881;48.522;7.682;2023-03-14T06:29:55;10.70;99.90
11650;DHT22;5881;48.522;7.682;2023-03-14T06:32:21;10.70;99.90
11650;DHT22;5881;48.522;7.682;2023-03-14T06:34:46;10.60;99.90
11650;DHT22;5881;48.522;7.682;2023-03-14T06:37:12;10.70;99.90
11650;DHT22;5881;48.522;7.682;2023-03-14T06:39:38;10.70;99.90
11650;DHT22;5881;48.522;7.682;2023-03-14T06:42:04;10.70;99.90
11650;DHT22;5881;48.522;7.682;2023-03-14T06:44:30;10.60;99.90
11650;DHT22;5881;48.522;7.682;2023-03-14T06:46:56;10.60;99.90
11650;DHT22;5881;48.522;7.682;2023-03-14T06:49:22;10.70;99.90
11650;DHT22;5881;48.522;7.682;2023-03-14T06:51:47;10.60;99.90
11650;DHT22;5881;48.522;7.682;2023-03-14T06:54:13;10.60;99.90
11650;DHT22;5881;48.522;7.682;2023-03-14T06:56:38;10.70;99.90
11650;DHT22;5881;48.522;7.682;2023-03-14T06:59:04;10.70;99.90
11650;DHT22;5881;48.522;7.682;2023-03-14T07:01:30;10.80;99.90
11650;DHT22;5881;48.522;7.682;2023-03-14T07:03:57;10.70;99.90
11650;DHT22;5881;48.522;7.682;2023-03-14T07:06:23;10.70;99.90
11650;DHT22;5881;48.522;7.682;2023-03-14T07:08:49;10.70;99.90
11650;DHT22;5881;48.522;7.682;2023-03-14T07:11:15;10.70;99.90
11650;DHT22;5881;48.522;7.682;2023-03-14T07:13:40;10.80;99.90
11650;DHT22;5881;48.522;7.682;2023-03-14T07:16:06;10.90;99.90
11650;DHT22;5881;48.522;7.682;2023-03-14T07:18:32;10.90;99.90
11650;DHT22;5881;48.522;7.682;2023-03-14T07:20:58;11.10;99.90
11650;DHT22;5881;48.522;7.682;2023-03-14T07:23:24;11.10;99.90
11650;DHT22;5881;48.522;7.682;2023-03-14T07:25:50;11.40;99.90
11650;DHT22;5881;48.522;7.682;2023-03-14T07:28:17;11.70;99.90
11650;DHT22;5881;48.522;7.682;2023-03-14T07:30:42;12.20;99.90
11650;DHT22;5881;48.522;7.682;2023-03-14T07:33:08;12.10;99.90
11650;DHT22;5881;48.522;7.682;2023-03-14T07:35:33;12.00;99.90
11650;DHT22;5881;48.522;7.682;2023-03-14T07:37:59;12.40;99.90
11650;DHT22;5881;48.522;7.682;2023-03-14T07:40:25;13.10;99.10
11650;DHT22;5881;48.522;7.682;2023-03-14T07:42:50;13.70;94.60
11650;DHT22;5881;48.522;7.682;2023-03-14T07:45:16;13.70;81.20
11650;DHT22;5881;48.522;7.682;2023-03-14T07:47:42;13.00;72.90
11650;DHT22;5881;48.522;7.682;2023-03-14T07:50:08;12.50;72.90
11650;DHT22;5881;48.522;7.682;2023-03-14T07:52:34;12.30;73.60
11650;DHT22;5881;48.522;7.682;2023-03-14T07:54:59;12.10;72.50
11650;DHT22;5881;48.522;7.682;2023-03-14T07:57:25;12.00;72.50
11650;DHT22;5881;48.522;7.682;2023-03-14T07:59:51;12.00;73.60
11650;DHT22;5881;48.522;7.682;2023-03-14T08:02:16;11.90;1.00
11650;DHT22;5881;48.522;7.682;2023-03-14T08:04:43;11.90;99.90
11650;DHT22;5881;48.522;7.682;2023-03-14T08:07:09;11.90;79.20
11650;DHT22;5881;48.522;7.682;2023-03-14T08:09:34;11.80;1.00
11650;DHT22;5881;48.522;7.682;2023-03-14T08:12:00;11.70;1.00
11650;DHT22;5881;48.522;7.682;2023-03-14T08:14:26;11.70;82.80
11650;DHT22;5881;48.522;7.682;2023-03-14T08:16:52;11.60;89.50
11650;DHT22;5881;48.522;7.682;2023-03-14T08:19:21;11.60;85.50
11650;DHT22;5881;48.522;7.682;2023-03-14T08:21:49;11.70;83.70
11650;DHT22;5881;48.522;7.682;2023-03-14T08:24:15;11.80;84.70
11650;DHT22;5881;48.522;7.682;2023-03-14T08:26:40;12.00;85.10
11650;DHT22;5881;48.522;7.682;2023-03-14T08:29:06;12.40;86.60
11650;DHT22;5881;48.522;7.682;2023-03-14T08:31:34;12.80;90.10
11650;DHT22;5881;48.522;7.682;2023-03-14T08:34:00;12.90;85.40
11650;DHT22;5881;48.522;7.682;2023-03-14T08:36:27;12.90;87.00
11650;DHT22;5881;48.522;7.682;2023-03-14T08:38:52;12.70;85.30
11650;DHT22;5881;48.522;7.682;2023-03-14T08:41:18;12.70;82.40
11650;DHT22;5881;48.522;7.682;2023-03-14T08:43:44;12.60;83.00
11650;DHT22;5881;48.522;7.682;2023-03-14T08:46:09;12.60;83.70
11650;DHT22;5881;48.522;7.682;2023-03-14T08:48:35;12.60;86.30
11650;DHT22;5881;48.522;7.682;2023-03-14T08:51:08;12.50;95.30
11650;DHT22;5881;48.522;7.682;2023-03-14T08:53:36;12.60;86.70
11650;DHT22;5881;48.522;7.682;2023-03-14T08:56:01;12.70;82.00
11650;DHT22;5881;48.522;7.682;2023-03-14T08:58:27;12.60;72.00
11650;DHT22;5881;48.522;7.682;2023-03-14T09:00:52;12.50;70.30
11650;DHT22;5881;48.522;7.682;2023-03-14T09:03:18;12.60;73.40
11650;DHT22;5881;48.522;7.682;2023-03-14T09:05:44;12.80;73.90
11650;DHT22;5881;48.522;7.682;2023-03-14T09:08:09;12.90;68.80
11650;DHT22;5881;48.522;7.682;2023-03-14T09:10:36;13.10;62.70
11650;DHT22;5881;48.522;7.682;2023-03-14T09:13:01;12.90;57.70
11650;DHT22;5881;48.522;7.682;2023-03-14T09:15:27;12.70;52.90
11650;DHT22;5881;48.522;7.682;2023-03-14T09:17:52;12.70;53.00
11650;DHT22;5881;48.522;7.682;2023-03-14T09:20:18;12.60;55.80
11650;DHT22;5881;48.522;7.682;2023-03-14T09:22:44;12.50;53.40
11650;DHT22;5881;48.522;7.682;2023-03-14T09:25:10;12.40;53.60
11650;DHT22;5881;48.522;7.682;2023-03-14T09:27:36;12.10;56.60
11650;DHT22;5881;48.522;7.682;2023-03-14T09:30:02;12.10;57.50
11650;DHT22;5881;48.522;7.682;2023-03-14T09:32:28;11.90;56.70
11650;DHT22;5881;48.522;7.682;2023-03-14T09:34:54;11.80;67.60
11650;DHT22;5881;48.522;7.682;2023-03-14T09:37:20;11.70;73.30
11650;DHT22;5881;48.522;7.682;2023-03-14T09:39:46;11.60;74.80
11650;DHT22;5881;48.522;7.682;2023-03-14T09:42:15;11.70;83.80
11650;DHT22;5881;48.522;7.682;2023-03-14T09:45:05;11.50;88.80
11650;DHT22;5881;48.522;7.682;2023-03-14T09:47:33;11.50;82.20
11650;DHT22;5881;48.522;7.682;2023-03-14T09:50:00;11.50;80.70
11650;DHT22;5881;48.522;7.682;2023-03-14T09:52:29;11.50;87.40
11650;DHT22;5881;48.522;7.682;2023-03-14T09:55:05;11.40;83.20
11650;DHT22;5881;48.522;7.682;2023-03-14T09:57:34;11.40;96.20
11650;DHT22;5881;48.522;7.682;2023-03-14T10:00:05;11.30;96.10
11650;DHT22;5881;48.522;7.682;2023-03-14T10:02:38;11.30;99.90
11650;DHT22;5881;48.522;7.682;2023-03-14T10:05:15;11.30;99.90
11650;DHT22;5881;48.522;7.682;2023-03-14T10:07:41;11.30;99.90
11650;DHT22;5881;48.522;7.682;2023-03-14T10:10:21;11.20;99.90
11650;DHT22;5881;48.522;7.682;2023-03-14T10:12:54;11.30;99.90
11650;DHT22;5881;48.522;7.682;2023-03-14T10:15:53;11.20;99.90
11650;DHT22;5881;48.522;7.682;2023-03-14T10:18:20;11.30;99.90
11650;DHT22;5881;48.522;7.682;2023-03-14T10:20:47;11.20;99.90
11650;DHT22;5881;48.522;7.682;2023-03-14T10:25:42;11.10;1.00
11650;DHT22;5881;48.522;7.682;2023-03-14T10:30:48;11.00;1.00
11650;DHT22;5881;48.522;7.682;2023-03-14T10:33:25;11.00;1.00
11650;DHT22;5881;48.522;7.682;2023-03-14T10:38:26;10.80;99.90
11650;DHT22;5881;48.522;7.682;2023-03-14T10:40:53;10.70;1.00
11650;DHT22;5881;48.522;7.682;2023-03-14T10:43:23;10.80;1.00
11650;DHT22;5881;48.522;7.682;2023-03-14T10:46:06;10.70;90.90
11650;DHT22;5881;48.522;7.682;2023-03-14T10:48:35;10.50;99.90
11650;DHT22;5881;48.522;7.682;2023-03-14T10:51:03;10.50;99.90
11650;DHT22;5881;48.522;7.682;2023-03-14T10:53:40;10.70;99.90
11650;DHT22;5881;48.522;7.682;2023-03-14T10:56:06;10.90;99.90
11650;DHT22;5881;48.522;7.682;2023-03-14T10:58:37;11.20;91.10
11650;DHT22;5881;48.522;7.682;2023-03-14T11:04:03;11.40;41.40
11650;DHT22;5881;48.522;7.682;2023-03-14T11:10:11;11.70;32.40
11650;DHT22;5881;48.522;7.682;2023-03-14T11:18:30;11.50;30.10
11650;DHT22;5881;48.522;7.682;2023-03-14T11:31:38;12.30;13.00
11650;DHT22;5881;48.522;7.682;2023-03-14T11:34:27;11.90;1.00
11650;DHT22;5881;48.522;7.682;2023-03-14T11:37:06;11.80;1.00
11650;DHT22;5881;48.522;7.682;2023-03-14T11:39:43;11.80;1.00
11650;DHT22;5881;48.522;7.682;2023-03-14T11:42:16;11.70;1.00
11650;DHT22;5881;48.522;7.682;2023-03-14T11:44:46;11.50;1.00
11650;DHT22;5881;48.522;7.682;2023-03-14T11:49:50;11.30;1.00
11650;DHT22;5881;48.522;7.682;2023-03-14T11:52:29;11.20;1.00
11650;DHT22;5881;48.522;7.682;2023-03-14T11:55:25;10.80;1.00
11650;DHT22;5881;48.522;7.682;2023-03-14T11:57:58;10.90;1.00
11650;DHT22;5881;48.522;7.682;2023-03-14T12:00:25;10.80;1.00
11650;DHT22;5881;48.522;7.682;2023-03-14T12:05:52;10.80;1.00
11650;DHT22;5881;48.522;7.682;2023-03-14T12:08:45;10.60;1.00
11650;DHT22;5881;48.522;7.682;2023-03-14T12:13:54;10.30;1.00
11650;DHT22;5881;48.522;7.682;2023-03-14T12:18:49;10.50;1.00
11650;DHT22;5881;48.522;7.682;2023-03-14T12:21:15;10.60;1.00
11650;DHT22;5881;48.522;7.682;2023-03-14T12:23:51;10.70;1.00
11650;DHT22;5881;48.522;7.682;2023-03-14T12:26:20;10.60;1.00
11650;DHT22;5881;48.522;7.682;2023-03-14T12:28:50;10.60;1.00
11650;DHT22;5881;48.522;7.682;2023-03-14T12:39:21;10.10;1.00
11650;DHT22;5881;48.522;7.682;2023-03-14T12:44:51;10.00;1.00
11650;DHT22;5881;48.522;7.682;2023-03-14T12:49:47;10.30;1.00
11650;DHT22;5881;48.522;7.682;2023-03-14T12:52:20;10.40;1.00
11650;DHT22;5881;48.522;7.682;2023-03-14T12:55:15;10.50;1.00
11650;DHT22;5881;48.522;7.682;2023-03-14T12:58:08;10.30;1.00
11650;DHT22;5881;48.522;7.682;2023-03-14T13:00:39;10.30;1.00
11650;DHT22;5881;48.522;7.682;2023-03-14T13:06:03;10.30;1.00
11650;DHT22;5881;48.522;7.682;2023-03-14T13:08:42;10.50;1.00
11650;DHT22;5881;48.522;7.682;2023-03-14T13:13:37;10.60;1.00
11650;DHT22;5881;48.522;7.682;2023-03-14T13:16:09;10.80;1.00
11650;DHT22;5881;48.522;7.682;2023-03-14T13:23:38;11.00;1.00
11650;DHT22;5881;48.522;7.682;2023-03-14T13:26:11;11.20;1.00
11650;DHT22;5881;48.522;7.682;2023-03-14T13:28:38;11.00;1.00
11650;DHT22;5881;48.522;7.682;2023-03-14T13:31:04;10.80;1.00
11650;DHT22;5881;48.522;7.682;2023-03-14T13:33:32;11.20;1.00
11650;DHT22;5881;48.522;7.682;2023-03-14T13:36:04;11.70;1.00
11650;DHT22;5881;48.522;7.682;2023-03-14T13:38:32;11.70;1.00
11650;DHT22;5881;48.522;7.682;2023-03-14T13:41:00;11.50;1.00
11650;DHT22;5881;48.522;7.682;2023-03-14T13:43:36;11.60;1.00
11650;DHT22;5881;48.522;7.682;2023-03-14T13:46:05;11.40;1.00
11650;DHT22;5881;48.522;7.682;2023-03-14T13:48:33;11.30;1.00
11650;DHT22;5881;48.522;7.682;2023-03-14T13:51:12;11.20;1.00
11650;DHT22;5881;48.522;7.682;2023-03-14T13:53:46;11.10;1.00
11650;DHT22;5881;48.522;7.682;2023-03-14T13:56:13;11.60;1.00
11650;DHT22;5881;48.522;7.682;2023-03-14T13:58:39;12.00;1.00
11650;DHT22;5881;48.522;7.682;2023-03-14T14:01:15;11.50;1.00
11650;DHT22;5881;48.522;7.682;2023-03-14T14:03:43;11.30;1.00
11650;DHT22;5881;48.522;7.682;2023-03-14T14:06:36;11.30;1.00
11650;DHT22;5881;48.522;7.682;2023-03-14T14:11:44;11.50;1.00
11650;DHT22;5881;48.522;7.682;2023-03-14T14:14:29;11.30;1.00
11650;DHT22;5881;48.522;7.682;2023-03-14T14:16:56;11.20;1.00
11650;DHT22;5881;48.522;7.682;2023-03-14T14:19:26;11.20;1.00
11650;DHT22;5881;48.522;7.682;2023-03-14T14:21:52;11.00;1.00
11650;DHT22;5881;48.522;7.682;2023-03-14T14:24:22;10.90;1.00
11650;DHT22;5881;48.522;7.682;2023-03-14T14:27:08;11.00;1.00
11650;DHT22;5881;48.522;7.682;2023-03-14T14:29:34;10.80;1.00
11650;DHT22;5881;48.522;7.682;2023-03-14T14:32:13;10.80;1.00
11650;DHT22;5881;48.522;7.682;2023-03-14T14:34:41;10.60;1.00
11650;DHT22;5881;48.522;7.682;2023-03-14T14:39:43;10.70;1.00
11650;DHT22;5881;48.522;7.682;2023-03-14T14:42:16;11.10;1.00
11650;DHT22;5881;48.522;7.682;2023-03-14T14:44:44;11.00;1.00
11650;DHT22;5881;48.522;7.682;2023-03-14T14:47:15;10.70;1.00
11650;DHT22;5881;48.522;7.682;2023-03-14T14:49:43;10.60;1.00
11650;DHT22;5881;48.522;7.682;2023-03-14T14:52:11;10.80;1.00
11650;DHT22;5881;48.522;7.682;2023-03-14T14:54:46;10.80;1.00
11650;DHT22;5881;48.522;7.682;2023-03-14T14:59:50;10.50;1.00
11650;DHT22;5881;48.522;7.682;2023-03-14T15:02:37;10.50;1.00
11650;DHT22;5881;48.522;7.682;2023-03-14T15:05:14;10.50;1.00
11650;DHT22;5881;48.522;7.682;2023-03-14T15:07:40;10.40;1.00
11650;DHT22;5881;48.522;7.682;2023-03-14T15:10:09;10.30;1.00
11650;DHT22;5881;48.522;7.682;2023-03-14T15:12:35;10.20;1.00
11650;DHT22;5881;48.522;7.682;2023-03-14T15:15:00;10.10;1.00
11650;DHT22;5881;48.522;7.682;2023-03-14T15:17:26;10.00;1.00
11650;DHT22;5881;48.522;7.682;2023-03-14T15:19:51;10.00;1.00
11650;DHT22;5881;48.522;7.682;2023-03-14T15:22:17;9.90;1.00
11650;DHT22;5881;48.522;7.682;2023-03-14T15:24:43;9.80;1.00
11650;DHT22;5881;48.522;7.682;2023-03-14T15:27:13;9.80;1.00
11650;DHT22;5881;48.522;7.682;2023-03-14T15:29:39;9.70;1.00
11650;DHT22;5881;48.522;7.682;2023-03-14T15:32:05;9.30;1.00
11650;DHT22;5881;48.522;7.682;2023-03-14T15:34:30;9.00;1.00
11650;DHT22;5881;48.522;7.682;2023-03-14T15:36:56;9.00;1.00
11650;DHT22;5881;48.522;7.682;2023-03-14T15:39:22;8.90;1.00
11650;DHT22;5881;48.522;7.682;2023-03-14T15:41:47;8.90;1.00
11650;DHT22;5881;48.522;7.682;2023-03-14T15:44:13;8.70;1.00
11650;DHT22;5881;48.522;7.682;2023-03-14T15:46:38;8.70;1.00
11650;DHT22;5881;48.522;7.682;2023-03-14T15:49:04;8.70;1.00
11650;DHT22;5881;48.522;7.682;2023-03-14T15:51:30;8.80;1.00
11650;DHT22;5881;48.522;7.682;2023-03-14T15:53:55;8.80;1.00
11650;DHT22;5881;48.522;7.682;2023-03-14T15:56:22;8.80;1.00
11650;DHT22;5881;48.522;7.682;2023-03-14T15:58:50;8.60;1.00
11650;DHT22;5881;48.522;7.682;2023-03-14T16:01:16;8.70;1.00
11650;DHT22;5881;48.522;7.682;2023-03-14T16:03:43;8.60;1.00
11650;DHT22;5881;48.522;7.682;2023-03-14T16:06:09;8.60;8.80
11650;DHT22;5881;48.522;7.682;2023-03-14T16:08:35;8.60;24.20
11650;DHT22;5881;48.522;7.682;2023-03-14T16:11:01;8.70;10.70
11650;DHT22;5881;48.522;7.682;2023-03-14T16:13:27;8.80;1.90
11650;DHT22;5881;48.522;7.682;2023-03-14T16:15:57;8.90;1.60
11650;DHT22;5881;48.522;7.682;2023-03-14T16:18:24;9.00;1.00
11650;DHT22;5881;48.522;7.682;2023-03-14T16:20:57;8.90;1.00
11650;DHT22;5881;48.522;7.682;2023-03-14T16:23:24;8.90;1.00
11650;DHT22;5881;48.522;7.682;2023-03-14T16:25:50;8.90;1.00
11650;DHT22;5881;48.522;7.682;2023-03-14T16:28:16;9.10;1.00
11650;DHT22;5881;48.522;7.682;2023-03-14T16:30:41;9.10;1.00
11650;DHT22;5881;48.522;7.682;2023-03-14T16:33:07;9.10;1.00
11650;DHT22;5881;48.522;7.682;2023-03-14T16:35:37;9.20;1.00
11650;DHT22;5881;48.522;7.682;2023-03-14T16:38:03;9.30;1.00
11650;DHT22;5881;48.522;7.682;2023-03-14T16:40:29;9.30;1.00
11650;DHT22;5881;48.522;7.682;2023-03-14T16:42:54;9.40;1.00
11650;DHT22;5881;48.522;7.682;2023-03-14T16:45:20;9.20;1.00
11650;DHT22;5881;48.522;7.682;2023-03-14T16:47:46;9.10;1.00
11650;DHT22;5881;48.522;7.682;2023-03-14T16:50:11;9.10;1.00
11650;DHT22;5881;48.522;7.682;2023-03-14T16:52:37;8.90;1.00
11650;DHT22;5881;48.522;7.682;2023-03-14T16:55:03;8.80;1.00
11650;DHT22;5881;48.522;7.682;2023-03-14T16:57:29;8.80;1.00
11650;DHT22;5881;48.522;7.682;2023-03-14T16:59:55;8.70;1.00
11650;DHT22;5881;48.522;7.682;2023-03-14T17:02:20;8.70;1.00
11650;DHT22;5881;48.522;7.682;2023-03-14T17:04:46;8.70;1.00
11650;DHT22;5881;48.522;7.682;2023-03-14T17:07:11;8.60;1.00
11650;DHT22;5881;48.522;7.682;2023-03-14T17:09:37;8.50;1.00
11650;DHT22;5881;48.522;7.682;2023-03-14T17:12:04;8.30;1.00
11650;DHT22;5881;48.522;7.682;2023-03-14T17:14:30;8.20;1.00
11650;DHT22;5881;48.522;7.682;2023-03-14T17:16:55;8.10;1.00
11650;DHT22;5881;48.522;7.682;2023-03-14T17:19:21;8.10;1.00
11650;DHT22;5881;48.522;7.682;2023-03-14T17:21:47;8.00;1.00
11650;DHT22;5881;48.522;7.682;2023-03-14T17:24:12;7.90;1.00